sensor_id;sensor_type;location;lat;lon;timestamp;temperature;humidity
35395;DHT22;21500;45.308;9.488;2022-12-08T11:58:20;6.20;99.90
35395;DHT22;21500;45.308;9.488;2022-12-08T12:00:51;6.20;99.90
35395;DHT22;21500;45.308;9.488;2022-12-08T12:03:42;6.10;99.90
35395;DHT22;21500;45.308;9.488;2022-12-08T12:28:18;6.30;99.90
35395;DHT22;21500;45.308;9.488;2022-12-08T12:31:35;6.40;99.90
35395;DHT22;21500;45.308;9.488;2022-12-08T12:40:18;6.80;99.90
35395;DHT22;21500;45.308;9.488;2022-12-08T12:43:24;7.00;99.90
35395;DHT22;21500;45.308;9.488;2022-12-08T12:55:23;6.60;99.90
35395;DHT22;21500;45.308;9.488;2022-12-08T12:58:02;6.70;99.90
35395;DHT22;21500;45.308;9.488;2022-12-08T13:00:43;7.30;99.90
35395;DHT22;21500;45.308;9.488;2022-12-08T13:03:13;8.50;99.90
35395;DHT22;21500;45.308;9.488;2022-12-08T13:05:50;9.70;99.90
35395;DHT22;21500;45.308;9.488;2022-12-08T13:08:25;9.60;99.90
35395;DHT22;21500;45.308;9.488;2022-12-08T13:11:06;9.10;99.90
35395;DHT22;21500;45.308;9.488;2022-12-08T13:13:39;9.40;99.90
35395;DHT22;21500;45.308;9.488;2022-12-08T13:16:24;9.70;99.90
35395;DHT22;21500;45.308;9.488;2022-12-08T13:19:04;9.40;99.90
35395;DHT22;21500;45.308;9.488;2022-12-08T13:29:45;9.70;99.90
35395;DHT22;21500;45.308;9.488;2022-12-08T13:43:50;8.60;99.90
35395;DHT22;21500;45.308;9.488;2022-12-08T13:46:33;9.00;99.90
35395;DHT22;21500;45.308;9.488;2022-12-08T13:49:10;9.70;99.90
35395;DHT22;21500;45.308;9.488;2022-12-08T13:52:17;9.70;99.90
35395;DHT22;21500;45.308;9.488;2022-12-08T13:55:00;9.30;99.90
35395;DHT22;21500;45.308;9.488;2022-12-08T13:57:57;8.90;99.90
35395;DHT22;21500;45.308;9.488;2022-12-08T14:00:25;8.60;99.90
35395;DHT22;21500;45.308;9.488;2022-12-08T14:03:02;8.50;99.90
35395;DHT22;21500;45.308;9.488;2022-12-08T14:05:40;9.00;99.90
35395;DHT22;21500;45.308;9.488;2022-12-08T14:08:28;9.80;99.90
35395;DHT22;21500;45.308;9.488;2022-12-08T14:11:08;9.60;99.90
35395;DHT22;21500;45.308;9.488;2022-12-08T14:13:54;8.80;99.90
35395;DHT22;21500;45.308;9.488;2022-12-08T14:16:36;9.00;99.90
35395;DHT22;21500;45.308;9.488;2022-12-08T14:19:25;8.90;99.90
35395;DHT22;21500;45.308;9.488;2022-12-08T14:22:05;9.30;99.90
35395;DHT22;21500;45.308;9.488;2022-12-08T14:24:35;9.10;99.90
35395;DHT22;21500;45.308;9.488;2022-12-08T14:27:04;8.90;99.90
35395;DHT22;21500;45.308;9.488;2022-12-08T14:30:32;8.80;99.90
35395;DHT22;21500;45.308;9.488;2022-12-08T14:33:40;8.10;99.90
35395;DHT22;21500;45.308;9.488;2022-12-08T14:36:08;8.50;99.90
35395;DHT22;21500;45.308;9.488;2022-12-08T14:38:35;7.90;99.90
35395;DHT22;21500;45.308;9.488;2022-12-08T14:44:25;7.80;99.90
35395;DHT22;21500;45.308;9.488;2022-12-08T14:47:19;7.70;99.90
35395;DHT22;21500;45.308;9.488;2022-12-08T14:50:37;7.50;99.90
35395;DHT22;21500;45.308;9.488;2022-12-08T14:53:15;7.30;99.90
35395;DHT22;21500;45.308;9.488;2022-12-08T14:55:46;7.10;99.90
35395;DHT22;21500;45.308;9.488;2022-12-08T14:58:39;7.10;99.90
35395;DHT22;21500;45.308;9.488;2022-12-08T15:15:56;6.80;99.90
35395;DHT22;21500;45.308;9.488;2022-12-08T15:18:37;6.80;99.90
35395;DHT22;21500;45.308;9.488;2022-12-08T15:21:05;6.70;99.90
35395;DHT22;21500;45.308;9.488;2022-12-08T15:23:43;6.70;99.90
35395;DHT22;21500;45.308;9.488;2022-12-08T15:26:23;6.60;99.90
35395;DHT22;21500;45.308;9.488;2022-12-08T15:28:51;6.60;99.90
35395;DHT22;21500;45.308;9.488;2022-12-08T15:31:18;6.50;99.90
35395;DHT22;21500;45.308;9.488;2022-12-08T15:33:49;6.50;99.90
35395;DHT22;21500;45.308;9.488;2022-12-08T15:36:15;6.50;99.90
35395;DHT22;21500;45.308;9.488;2022-12-08T15:38:42;6.50;99.90
35395;DHT22;21500;45.308;9.488;2022-12-08T15:41:08;6.40;99.90
35395;DHT22;21500;45.308;9.488;2022-12-08T15:43:34;6.40;99.90
35395;DHT22;21500;45.308;9.488;2022-12-08T15:46:00;6.40;99.90
35395;DHT22;21500;45.308;9.488;2022-12-08T15:48:29;6.40;99.90
35395;DHT22;21500;45.308;9.488;2022-12-08T15:51:15;6.40;99.90
35395;DHT22;21500;45.308;9.488;2022-12-08T15:53:50;6.40;99.90
35395;DHT22;21500;45.308;9.488;2022-12-08T15:56:19;6.30;99.90
35395;DHT22;21500;45.308;9.488;2022-12-08T15:58:51;6.40;99.90
35395;DHT22;21500;45.308;9.488;2022-12-08T16:01:17;6.30;99.90
35395;DHT22;21500;45.308;9.488;2022-12-08T16:03:44;6.30;99.90
35395;DHT22;21500;45.308;9.488;2022-12-08T16:06:33;6.20;99.90
35395;DHT22;21500;45.308;9.488;2022-12-08T16:09:36;6.20;99.90
35395;DHT22;21500;45.308;9.488;2022-12-08T16:12:14;6.20;99.90
35395;DHT22;21500;45.308;9.488;2022-12-08T16:15:03;6.30;99.90
35395;DHT22;21500;45.308;9.488;2022-12-08T16:17:33;6.30;99.90
35395;DHT22;21500;45.308;9.488;2022-12-08T16:20:21;6.30;99.90
35395;DHT22;21500;45.308;9.488;2022-12-08T16:22:51;6.30;99.90
35395;DHT22;21500;45.308;9.488;2022-12-08T16:25:29;6.30;99.90
35395;DHT22;21500;45.308;9.488;2022-12-08T16:28:32;6.20;99.90
35395;DHT22;21500;45.308;9.488;2022-12-08T16:31:45;6.20;99.90
35395;DHT22;21500;45.308;9.488;2022-12-08T16:38:47;6.20;99.90
35395;DHT22;21500;45.308;9.488;2022-12-08T16:41:15;6.20;99.90
35395;DHT22;21500;45.308;9.488;2022-12-08T16:44:29;6.10;99.90
35395;DHT22;21500;45.308;9.488;2022-12-08T16:47:15;6.20;99.90
35395;DHT22;21500;45.308;9.488;2022-12-08T16:49:42;6.20;99.90
35395;DHT22;21500;45.308;9.488;2022-12-08T16:52:23;6.10;99.90
35395;DHT22;21500;45.308;9.488;2022-12-08T16:55:22;6.20;99.90
35395;DHT22;21500;45.308;9.488;2022-12-08T16:58:15;6.20;99.90
35395;DHT22;21500;45.308;9.488;2022-12-08T17:01:15;6.20;99.90
35395;DHT22;21500;45.308;9.488;2022-12-08T17:03:42;6.20;99.90
35395;DHT22;21500;45.308;9.488;2022-12-08T17:06:14;6.20;99.90
35395;DHT22;21500;45.308;9.488;2022-12-08T17:08:40;6.20;99.90
35395;DHT22;21500;45.308;9.488;2022-12-08T17:11:06;6.20;99.90
35395;DHT22;21500;45.308;9.488;2022-12-08T17:13:38;6.20;99.90
35395;DHT22;21500;45.308;9.488;2022-12-08T17:16:13;6.20;99.90
35395;DHT22;21500;45.308;9.488;2022-12-08T17:18:40;6.20;99.90
35395;DHT22;21500;45.308;9.488;2022-12-08T17:21:13;6.20;99.90
35395;DHT22;21500;45.308;9.488;2022-12-08T17:23:40;6.20;99.90
35395;DHT22;21500;45.308;9.488;2022-12-08T17:26:07;6.10;99.90
35395;DHT22;21500;45.308;9.488;2022-12-08T17:28:33;6.20;99.90
35395;DHT22;21500;45.308;9.488;2022-12-08T17:30:59;6.10;99.90
35395;DHT22;21500;45.308;9.488;2022-12-08T17:33:46;6.10;99.90
35395;DHT22;21500;45.308;9.488;2022-12-08T17:37:09;6.10;99.90
35395;DHT22;21500;45.308;9.488;2022-12-08T17:43:06;6.10;99.90
35395;DHT22;21500;45.308;9.488;2022-12-08T17:45:33;6.10;99.90
35395;DHT22;21500;45.308;9.488;2022-12-08T17:48:05;6.10;99.90
35395;DHT22;21500;45.308;9.488;2022-12-08T17:50:40;6.10;99.90
35395;DHT22;21500;45.308;9.488;2022-12-08T17:53:06;6.10;99.90
35395;DHT22;21500;45.308;9.488;2022-12-08T17:55:32;6.20;99.90
35395;DHT22;21500;45.308;9.488;2022-12-08T17:57:58;6.10;99.90
35395;DHT22;21500;45.308;9.488;2022-12-08T18:00:24;6.10;99.90
35395;DHT22;21500;45.308;9.488;2022-12-08T18:02:50;6.10;99.90
35395;DHT22;21500;45.308;9.488;2022-12-08T18:05:16;6.10;99.90
35395;DHT22;21500;45.308;9.488;2022-12-08T18:07:42;6.10;99.90
35395;DHT22;21500;45.308;9.488;2022-12-08T18:10:08;6.10;99.90
35395;DHT22;21500;45.308;9.488;2022-12-08T18:12:34;6.20;99.90
35395;DHT22;21500;45.308;9.488;2022-12-08T18:15:00;6.20;99.90
35395;DHT22;21500;45.308;9.488;2022-12-08T18:17:26;6.20;99.90
35395;DHT22;21500;45.308;9.488;2022-12-08T18:19:51;6.20;99.90
35395;DHT22;21500;45.308;9.488;2022-12-08T18:22:17;6.20;99.90
35395;DHT22;21500;45.308;9.488;2022-12-08T18:24:43;6.20;99.90
35395;DHT22;21500;45.308;9.488;2022-12-08T18:27:09;6.20;99.90
35395;DHT22;21500;45.308;9.488;2022-12-08T18:29:34;6.20;99.90
35395;DHT22;21500;45.308;9.488;2022-12-08T18:32:00;6.10;99.90
35395;DHT22;21500;45.308;9.488;2022-12-08T18:34:26;6.20;99.90
35395;DHT22;21500;45.308;9.488;2022-12-08T18:36:52;6.20;99.90
35395;DHT22;21500;45.308;9.488;2022-12-08T18:39:27;6.20;99.90
35395;DHT22;21500;45.308;9.488;2022-12-08T18:41:55;6.20;99.90
35395;DHT22;21500;45.308;9.488;2022-12-08T18:44:23;6.20;99.90
35395;DHT22;21500;45.308;9.488;2022-12-08T18:46:49;6.20;99.90
35395;DHT22;21500;45.308;9.488;2022-12-08T18:49:16;6.10;99.90
35395;DHT22;21500;45.308;9.488;2022-12-08T18:51:45;6.20;99.90
35395;DHT22;21500;45.308;9.488;2022-12-08T18:54:12;6.10;99.90
35395;DHT22;21500;45.308;9.488;2022-12-08T18:56:41;6.10;99.90
35395;DHT22;21500;45.308;9.488;2022-12-08T18:59:09;6.10;99.90
35395;DHT22;21500;45.308;9.488;2022-12-08T19:01:36;6.10;99.90
35395;DHT22;21500;45.308;9.488;2022-12-08T19:04:05;6.10;99.90
35395;DHT22;21500;45.308;9.488;2022-12-08T19:06:32;6.10;99.90
35395;DHT22;21500;45.308;9.488;2022-12-08T19:08:58;6.10;99.90
35395;DHT22;21500;45.308;9.488;2022-12-08T19:11:26;6.20;99.90
35395;DHT22;21500;45.308;9.488;2022-12-08T19:13:52;6.20;99.90
35395;DHT22;21500;45.308;9.488;2022-12-08T19:16:19;6.20;99.90
35395;DHT22;21500;45.308;9.488;2022-12-08T19:18:47;6.10;99.90
35395;DHT22;21500;45.308;9.488;2022-12-08T19:21:14;6.10;99.90
35395;DHT22;21500;45.308;9.488;2022-12-08T19:23:40;6.20;99.90
35395;DHT22;21500;45.308;9.488;2022-12-08T19:26:09;6.20;99.90
35395;DHT22;21500;45.308;9.488;2022-12-08T19:28:35;6.10;99.90
35395;DHT22;21500;45.308;9.488;2022-12-08T19:31:06;6.10;99.90
35395;DHT22;21500;45.308;9.488;2022-12-08T19:33:32;6.10;99.90
35395;DHT22;21500;45.308;9.488;2022-12-08T19:36:02;6.10;99.90
35395;DHT22;21500;45.308;9.488;2022-12-08T19:38:28;6.10;99.90
35395;DHT22;21500;45.308;9.488;2022-12-08T19:40:54;6.10;99.90
35395;DHT22;21500;45.308;9.488;2022-12-08T19:43:42;6.10;99.90
35395;DHT22;21500;45.308;9.488;2022-12-08T19:46:30;6.10;99.90
35395;DHT22;21500;45.308;9.488;2022-12-08T19:48:56;6.10;99.90
35395;DHT22;21500;45.308;9.488;2022-12-08T19:51:23;6.10;99.90
35395;DHT22;21500;45.308;9.488;2022-12-08T19:53:49;6.10;99.90
35395;DHT22;21500;45.308;9.488;2022-12-08T19:56:20;6.10;99.90
35395;DHT22;21500;45.308;9.488;2022-12-08T19:58:52;6.10;99.90
35395;DHT22;21500;45.308;9.488;2022-12-08T20:01:17;6.20;99.90
35395;DHT22;21500;45.308;9.488;2022-12-08T20:03:43;6.10;99.90
35395;DHT22;21500;45.308;9.488;2022-12-08T20:06:15;6.20;99.90
35395;DHT22;21500;45.308;9.488;2022-12-08T20:08:44;6.20;99.90
35395;DHT22;21500;45.308;9.488;2022-12-08T20:11:13;6.30;99.90
35395;DHT22;21500;45.308;9.488;2022-12-08T20:13:39;6.20;99.90
35395;DHT22;21500;45.308;9.488;2022-12-08T20:16:11;6.20;99.90
35395;DHT22;21500;45.308;9.488;2022-12-08T20:18:37;6.20;99.90
35395;DHT22;21500;45.308;9.488;2022-12-08T20:21:05;6.20;99.90
35395;DHT22;21500;45.308;9.488;2022-12-08T20:23:32;6.20;99.90
35395;DHT22;21500;45.308;9.488;2022-12-08T20:25:58;6.20;99.90
35395;DHT22;21500;45.308;9.488;2022-12-08T20:28:28;6.10;99.90
35395;DHT22;21500;45.308;9.488;2022-12-08T20:30:54;6.10;99.90
35395;DHT22;21500;45.308;9.488;2022-12-08T20:33:20;6.10;99.90
35395;DHT22;21500;45.308;9.488;2022-12-08T20:35:46;6.20;99.90
35395;DHT22;21500;45.308;9.488;2022-12-08T20:38:15;6.20;99.90
35395;DHT22;21500;45.308;9.488;2022-12-08T20:41:09;6.20;99.90
35395;DHT22;21500;45.308;9.488;2022-12-08T20:46:40;6.20;99.90
35395;DHT22;21500;45.308;9.488;2022-12-08T20:49:06;6.20;99.90
35395;DHT22;21500;45.308;9.488;2022-12-08T20:51:39;6.20;99.90
35395;DHT22;21500;45.308;9.488;2022-12-08T20:54:24;6.20;99.90
35395;DHT22;21500;45.308;9.488;2022-12-08T20:57:03;6.20;99.90
35395;DHT22;21500;45.308;9.488;2022-12-08T20:59:39;6.20;99.90
35395;DHT22;21500;45.308;9.488;2022-12-08T21:02:15;6.20;99.90
35395;DHT22;21500;45.308;9.488;2022-12-08T21:04:42;6.20;99.90
35395;DHT22;21500;45.308;9.488;2022-12-08T21:07:10;6.20;99.90
35395;DHT22;21500;45.308;9.488;2022-12-08T21:09:38;6.20;99.90
35395;DHT22;21500;45.308;9.488;2022-12-08T21:12:31;6.10;99.90
35395;DHT22;21500;45.308;9.488;2022-12-08T21:15:05;6.10;99.90
35395;DHT22;21500;45.308;9.488;2022-12-08T21:17:42;6.10;99.90
35395;DHT22;21500;45.308;9.488;2022-12-08T21:20:11;6.10;99.90
35395;DHT22;21500;45.308;9.488;2022-12-08T21:22:38;6.10;99.90
35395;DHT22;21500;45.308;9.488;2022-12-08T21:25:05;6.10;99.90
35395;DHT22;21500;45.308;9.488;2022-12-08T21:27:31;6.10;99.90
35395;DHT22;21500;45.308;9.488;2022-12-08T21:29:57;6.20;99.90
35395;DHT22;21500;45.308;9.488;2022-12-08T21:32:22;6.30;99.90
35395;DHT22;21500;45.308;9.488;2022-12-08T21:34:49;6.20;99.90
35395;DHT22;21500;45.308;9.488;2022-12-08T21:37:15;6.30;99.90
35395;DHT22;21500;45.308;9.488;2022-12-08T21:39:42;6.30;99.90
35395;DHT22;21500;45.308;9.488;2022-12-08T21:42:08;6.20;99.90
35395;DHT22;21500;45.308;9.488;2022-12-08T21:44:52;6.30;99.90
35395;DHT22;21500;45.308;9.488;2022-12-08T21:47:18;6.30;99.90
35395;DHT22;21500;45.308;9.488;2022-12-08T21:49:44;6.20;99.90
35395;DHT22;21500;45.308;9.488;2022-12-08T21:52:10;6.30;99.90
35395;DHT22;21500;45.308;9.488;2022-12-08T21:54:35;6.30;99.90
35395;DHT22;21500;45.308;9.488;2022-12-08T21:57:01;6.30;99.90
35395;DHT22;21500;45.308;9.488;2022-12-08T21:59:27;6.40;99.90
35395;DHT22;21500;45.308;9.488;2022-12-08T22:01:52;6.40;99.90
35395;DHT22;21500;45.308;9.488;2022-12-08T22:04:18;6.40;99.90
35395;DHT22;21500;45.308;9.488;2022-12-08T22:06:46;6.40;99.90
35395;DHT22;21500;45.308;9.488;2022-12-08T22:09:12;6.40;99.90
35395;DHT22;21500;45.308;9.488;2022-12-08T22:11:40;6.40;99.90
35395;DHT22;21500;45.308;9.488;2022-12-08T22:14:06;6.50;99.90
35395;DHT22;21500;45.308;9.488;2022-12-08T22:16:31;6.40;99.90
35395;DHT22;21500;45.308;9.488;2022-12-08T22:18:58;6.40;99.90
35395;DHT22;21500;45.308;9.488;2022-12-08T22:21:24;6.30;99.90
35395;DHT22;21500;45.308;9.488;2022-12-08T22:23:50;6.30;99.90
35395;DHT22;21500;45.308;9.488;2022-12-08T22:26:15;6.20;99.90
35395;DHT22;21500;45.308;9.488;2022-12-08T22:28:42;6.20;99.90
35395;DHT22;21500;45.308;9.488;2022-12-08T22:31:19;6.20;99.90
35395;DHT22;21500;45.308;9.488;2022-12-08T22:33:48;6.30;99.90
35395;DHT22;21500;45.308;9.488;2022-12-08T22:36:17;6.20;99.90
35395;DHT22;21500;45.308;9.488;2022-12-08T22:38:43;6.10;99.90
35395;DHT22;21500;45.308;9.488;2022-12-08T22:41:09;6.10;99.90
35395;DHT22;21500;45.308;9.488;2022-12-08T22:43:35;6.10;99.90
35395;DHT22;21500;45.308;9.488;2022-12-08T22:46:06;6.10;99.90
35395;DHT22;21500;45.308;9.488;2022-12-08T22:48:32;6.10;99.90
35395;DHT22;21500;45.308;9.488;2022-12-08T22:50:58;6.10;99.90
35395;DHT22;21500;45.308;9.488;2022-12-08T22:53:24;6.10;99.90
35395;DHT22;21500;45.308;9.488;2022-12-08T22:55:50;6.00;99.90
35395;DHT22;21500;45.308;9.488;2022-12-08T22:58:16;6.10;99.90
35395;DHT22;21500;45.308;9.488;2022-12-08T23:00:42;6.10;99.90
35395;DHT22;21500;45.308;9.488;2022-12-08T23:03:08;6.00;99.90
35395;DHT22;21500;45.308;9.488;2022-12-08T23:05:35;6.10;99.90
35395;DHT22;21500;45.308;9.488;2022-12-08T23:08:02;6.10;99.90
35395;DHT22;21500;45.308;9.488;2022-12-08T23:10:28;6.10;99.90
35395;DHT22;21500;45.308;9.488;2022-12-08T23:12:54;6.10;99.90
35395;DHT22;21500;45.308;9.488;2022-12-08T23:15:20;6.20;99.90
35395;DHT22;21500;45.308;9.488;2022-12-08T23:17:46;6.10;99.90
35395;DHT22;21500;45.308;9.488;2022-12-08T23:20:12;6.20;99.90
35395;DHT22;21500;45.308;9.488;2022-12-08T23:22:38;6.20;99.90
35395;DHT22;21500;45.308;9.488;2022-12-08T23:25:04;6.20;99.90
35395;DHT22;21500;45.308;9.488;2022-12-08T23:27:31;6.20;99.90
35395;DHT22;21500;45.308;9.488;2022-12-08T23:29:57;6.20;99.90
35395;DHT22;21500;45.308;9.488;2022-12-08T23:32:23;6.20;99.90
35395;DHT22;21500;45.308;9.488;2022-12-08T23:34:49;6.20;99.90
35395;DHT22;21500;45.308;9.488;2022-12-08T23:37:15;6.10;99.90
35395;DHT22;21500;45.308;9.488;2022-12-08T23:39:41;6.20;99.90
35395;DHT22;21500;45.308;9.488;2022-12-08T23:42:06;6.20;99.90
35395;DHT22;21500;45.308;9.488;2022-12-08T23:44:32;6.20;99.90
35395;DHT22;21500;45.308;9.488;2022-12-08T23:46:58;6.20;99.90
35395;DHT22;21500;45.308;9.488;2022-12-08T23:49:25;6.20;99.90
35395;DHT22;21500;45.308;9.488;2022-12-08T23:51:51;6.20;99.90
35395;DHT22;21500;45.308;9.488;2022-12-08T23:54:16;6.20;99.90
35395;DHT22;21500;45.308;9.488;2022-12-08T23:56:42;6.20;99.90
35395;DHT22;21500;45.308;9.488;2022-12-08T23:59:08;6.20;99.90
